sensor_id;sensor_type;location;lat;lon;timestamp;temperature;humidity
75010;DHT22;63564;46.840;18.336;2022-12-15T00:00:37;0.75;93.50
75010;DHT22;63564;46.840;18.336;2022-12-15T00:03:56;0.88;92.32
75010;DHT22;63564;46.840;18.336;2022-12-15T00:07:15;0.91;92.64
75010;DHT22;63564;46.840;18.336;2022-12-15T00:10:34;0.83;92.38
75010;DHT22;63564;46.840;18.336;2022-12-15T00:13:53;0.84;92.05
75010;DHT22;63564;46.840;18.336;2022-12-15T00:17:12;0.65;93.22
75010;DHT22;63564;46.840;18.336;2022-12-15T00:20:31;0.78;92.95
75010;DHT22;63564;46.840;18.336;2022-12-15T00:23:50;0.89;92.09
75010;DHT22;63564;46.840;18.336;2022-12-15T00:27:09;0.68;93.19
75010;DHT22;63564;46.840;18.336;2022-12-15T00:30:28;0.88;92.75
75010;DHT22;63564;46.840;18.336;2022-12-15T00:33:47;0.64;93.57
75010;DHT22;63564;46.840;18.336;2022-12-15T00:37:06;0.70;93.61
75010;DHT22;63564;46.840;18.336;2022-12-15T00:40:25;0.49;93.38
75010;DHT22;63564;46.840;18.336;2022-12-15T00:43:30;0.37;94.00
75010;DHT22;63564;46.840;18.336;2022-12-15T00:46:31;0.29;94.73
75010;DHT22;63564;46.840;18.336;2022-12-15T00:49:50;0.36;94.74
75010;DHT22;63564;46.840;18.336;2022-12-15T00:53:09;0.33;92.93
75010;DHT22;63564;46.840;18.336;2022-12-15T00:56:29;0.29;93.62
75010;DHT22;63564;46.840;18.336;2022-12-15T00:59:48;0.10;94.65
75010;DHT22;63564;46.840;18.336;2022-12-15T01:03:18;0.18;94.71
75010;DHT22;63564;46.840;18.336;2022-12-15T01:06:37;0.32;94.26
75010;DHT22;63564;46.840;18.336;2022-12-15T01:09:56;0.54;93.84
75010;DHT22;63564;46.840;18.336;2022-12-15T01:13:15;0.30;94.07
75010;DHT22;63564;46.840;18.336;2022-12-15T01:16:34;0.23;94.88
75010;DHT22;63564;46.840;18.336;2022-12-15T01:19:53;0.20;95.21
75010;DHT22;63564;46.840;18.336;2022-12-15T01:23:12;0.23;95.28
75010;DHT22;63564;46.840;18.336;2022-12-15T01:26:12;0.18;95.39
75010;DHT22;63564;46.840;18.336;2022-12-15T01:29:12;0.18;95.31
75010;DHT22;63564;46.840;18.336;2022-12-15T01:32:13;0.25;95.19
75010;DHT22;63564;46.840;18.336;2022-12-15T01:35:14;0.27;95.01
75010;DHT22;63564;46.840;18.336;2022-12-15T01:38:14;0.26;94.99
75010;DHT22;63564;46.840;18.336;2022-12-15T01:41:15;0.20;95.23
75010;DHT22;63564;46.840;18.336;2022-12-15T01:44:23;0.50;94.12
75010;DHT22;63564;46.840;18.336;2022-12-15T01:47:24;0.53;93.47
75010;DHT22;63564;46.840;18.336;2022-12-15T01:50:27;0.29;94.58
75010;DHT22;63564;46.840;18.336;2022-12-15T01:53:31;0.43;94.53
75010;DHT22;63564;46.840;18.336;2022-12-15T01:56:36;0.65;93.84
75010;DHT22;63564;46.840;18.336;2022-12-15T01:59:42;0.63;93.92
75010;DHT22;63564;46.840;18.336;2022-12-15T02:02:45;0.99;92.43
75010;DHT22;63564;46.840;18.336;2022-12-15T02:05:45;1.11;91.75
75010;DHT22;63564;46.840;18.336;2022-12-15T02:08:49;0.92;92.32
75010;DHT22;63564;46.840;18.336;2022-12-15T02:15:18;1.01;92.00
75010;DHT22;63564;46.840;18.336;2022-12-15T02:18:39;1.03;92.04
75010;DHT22;63564;46.840;18.336;2022-12-15T02:21:49;0.91;92.55
75010;DHT22;63564;46.840;18.336;2022-12-15T02:28:30;0.52;93.61
75010;DHT22;63564;46.840;18.336;2022-12-15T02:31:43;0.71;93.62
75010;DHT22;63564;46.840;18.336;2022-12-15T02:35:11;0.53;93.94
75010;DHT22;63564;46.840;18.336;2022-12-15T02:38:14;0.22;95.67
75010;DHT22;63564;46.840;18.336;2022-12-15T02:41:39;0.33;95.18
75010;DHT22;63564;46.840;18.336;2022-12-15T02:44:44;0.39;94.91
75010;DHT22;63564;46.840;18.336;2022-12-15T02:51:21;0.36;95.16
75010;DHT22;63564;46.840;18.336;2022-12-15T02:54:34;0.30;95.11
75010;DHT22;63564;46.840;18.336;2022-12-15T02:57:47;0.44;94.99
75010;DHT22;63564;46.840;18.336;2022-12-15T03:00:54;0.53;94.96
75010;DHT22;63564;46.840;18.336;2022-12-15T03:03:57;0.50;94.57
75010;DHT22;63564;46.840;18.336;2022-12-15T03:07:01;0.60;94.67
75010;DHT22;63564;46.840;18.336;2022-12-15T03:10:05;0.75;93.22
75010;DHT22;63564;46.840;18.336;2022-12-15T03:13:06;0.65;93.30
75010;DHT22;63564;46.840;18.336;2022-12-15T03:16:06;0.77;93.91
75010;DHT22;63564;46.840;18.336;2022-12-15T03:19:07;0.65;93.23
75010;DHT22;63564;46.840;18.336;2022-12-15T03:22:07;0.36;94.20
75010;DHT22;63564;46.840;18.336;2022-12-15T03:25:08;0.44;94.38
75010;DHT22;63564;46.840;18.336;2022-12-15T03:28:08;0.67;93.13
75010;DHT22;63564;46.840;18.336;2022-12-15T03:31:09;0.70;94.41
75010;DHT22;63564;46.840;18.336;2022-12-15T03:34:09;0.74;95.12
75010;DHT22;63564;46.840;18.336;2022-12-15T03:37:10;0.89;93.15
75010;DHT22;63564;46.840;18.336;2022-12-15T03:40:11;0.84;93.81
75010;DHT22;63564;46.840;18.336;2022-12-15T03:43:12;0.74;93.70
75010;DHT22;63564;46.840;18.336;2022-12-15T03:46:13;0.95;93.39
75010;DHT22;63564;46.840;18.336;2022-12-15T03:49:13;0.64;94.09
75010;DHT22;63564;46.840;18.336;2022-12-15T03:52:14;0.54;95.22
75010;DHT22;63564;46.840;18.336;2022-12-15T03:55:14;0.22;95.91
75010;DHT22;63564;46.840;18.336;2022-12-15T03:58:15;0.44;95.64
75010;DHT22;63564;46.840;18.336;2022-12-15T04:01:30;0.58;94.53
75010;DHT22;63564;46.840;18.336;2022-12-15T04:04:30;0.71;94.65
75010;DHT22;63564;46.840;18.336;2022-12-15T04:07:31;0.58;95.14
75010;DHT22;63564;46.840;18.336;2022-12-15T04:10:33;0.58;95.48
75010;DHT22;63564;46.840;18.336;2022-12-15T04:13:34;0.78;94.52
75010;DHT22;63564;46.840;18.336;2022-12-15T04:16:34;0.67;95.17
75010;DHT22;63564;46.840;18.336;2022-12-15T04:19:35;0.61;95.44
75010;DHT22;63564;46.840;18.336;2022-12-15T04:22:55;0.75;94.91
75010;DHT22;63564;46.840;18.336;2022-12-15T04:25:55;0.80;94.59
75010;DHT22;63564;46.840;18.336;2022-12-15T04:29:14;0.71;94.92
75010;DHT22;63564;46.840;18.336;2022-12-15T04:32:33;0.70;95.53
75010;DHT22;63564;46.840;18.336;2022-12-15T04:35:52;0.95;94.93
75010;DHT22;63564;46.840;18.336;2022-12-15T04:39:11;1.13;93.18
75010;DHT22;63564;46.840;18.336;2022-12-15T04:42:31;0.73;95.11
75010;DHT22;63564;46.840;18.336;2022-12-15T04:45:51;0.99;93.90
75010;DHT22;63564;46.840;18.336;2022-12-15T04:49:10;1.09;93.66
75010;DHT22;63564;46.840;18.336;2022-12-15T04:52:29;1.05;94.11
75010;DHT22;63564;46.840;18.336;2022-12-15T04:55:48;0.88;94.53
75010;DHT22;63564;46.840;18.336;2022-12-15T04:59:07;0.91;95.04
75010;DHT22;63564;46.840;18.336;2022-12-15T05:02:26;0.92;94.78
75010;DHT22;63564;46.840;18.336;2022-12-15T05:05:45;0.91;95.22
75010;DHT22;63564;46.840;18.336;2022-12-15T05:09:04;0.84;95.55
75010;DHT22;63564;46.840;18.336;2022-12-15T05:12:23;1.02;94.98
75010;DHT22;63564;46.840;18.336;2022-12-15T05:15:42;0.99;94.68
75010;DHT22;63564;46.840;18.336;2022-12-15T05:19:01;0.94;94.91
75010;DHT22;63564;46.840;18.336;2022-12-15T05:22:20;0.89;95.16
75010;DHT22;63564;46.840;18.336;2022-12-15T05:25:39;0.87;95.35
75010;DHT22;63564;46.840;18.336;2022-12-15T05:28:58;0.85;95.50
75010;DHT22;63564;46.840;18.336;2022-12-15T05:32:17;0.96;95.31
75010;DHT22;63564;46.840;18.336;2022-12-15T05:35:17;0.78;95.25
75010;DHT22;63564;46.840;18.336;2022-12-15T05:38:18;0.83;95.35
75010;DHT22;63564;46.840;18.336;2022-12-15T05:41:19;0.73;95.87
75010;DHT22;63564;46.840;18.336;2022-12-15T05:44:20;0.65;96.52
75010;DHT22;63564;46.840;18.336;2022-12-15T05:47:21;0.73;96.07
75010;DHT22;63564;46.840;18.336;2022-12-15T05:50:22;0.71;96.28
75010;DHT22;63564;46.840;18.336;2022-12-15T05:53:22;0.84;95.90
75010;DHT22;63564;46.840;18.336;2022-12-15T05:56:24;0.67;96.20
75010;DHT22;63564;46.840;18.336;2022-12-15T05:59:24;0.84;95.65
75010;DHT22;63564;46.840;18.336;2022-12-15T06:02:27;0.99;95.01
75010;DHT22;63564;46.840;18.336;2022-12-15T06:05:28;0.88;95.80
75010;DHT22;63564;46.840;18.336;2022-12-15T06:08:30;1.11;94.72
75010;DHT22;63564;46.840;18.336;2022-12-15T06:11:31;1.15;94.29
75010;DHT22;63564;46.840;18.336;2022-12-15T06:14:32;1.09;94.23
75010;DHT22;63564;46.840;18.336;2022-12-15T06:17:32;0.94;95.10
75010;DHT22;63564;46.840;18.336;2022-12-15T06:20:33;1.01;94.92
75010;DHT22;63564;46.840;18.336;2022-12-15T06:23:33;0.81;95.56
75010;DHT22;63564;46.840;18.336;2022-12-15T06:26:36;0.80;95.85
75010;DHT22;63564;46.840;18.336;2022-12-15T06:29:37;0.92;95.71
75010;DHT22;63564;46.840;18.336;2022-12-15T06:32:37;0.96;95.50
75010;DHT22;63564;46.840;18.336;2022-12-15T06:35:38;0.85;95.73
75010;DHT22;63564;46.840;18.336;2022-12-15T06:38:38;1.09;96.15
75010;DHT22;63564;46.840;18.336;2022-12-15T06:41:39;1.15;95.65
75010;DHT22;63564;46.840;18.336;2022-12-15T06:44:40;1.23;95.15
75010;DHT22;63564;46.840;18.336;2022-12-15T06:47:40;1.29;93.96
75010;DHT22;63564;46.840;18.336;2022-12-15T06:50:41;1.38;94.88
75010;DHT22;63564;46.840;18.336;2022-12-15T06:53:42;1.42;95.14
75010;DHT22;63564;46.840;18.336;2022-12-15T06:56:48;1.30;95.70
75010;DHT22;63564;46.840;18.336;2022-12-15T06:59:48;1.35;95.66
75010;DHT22;63564;46.840;18.336;2022-12-15T07:02:48;1.61;93.79
75010;DHT22;63564;46.840;18.336;2022-12-15T07:06:00;1.49;93.88
75010;DHT22;63564;46.840;18.336;2022-12-15T07:09:01;1.43;94.26
75010;DHT22;63564;46.840;18.336;2022-12-15T07:12:02;1.39;93.92
75010;DHT22;63564;46.840;18.336;2022-12-15T07:15:02;1.33;95.30
75010;DHT22;63564;46.840;18.336;2022-12-15T07:18:03;1.36;95.04
75010;DHT22;63564;46.840;18.336;2022-12-15T07:21:06;1.49;94.51
75010;DHT22;63564;46.840;18.336;2022-12-15T07:24:09;1.43;94.64
75010;DHT22;63564;46.840;18.336;2022-12-15T07:27:11;1.51;94.68
75010;DHT22;63564;46.840;18.336;2022-12-15T07:30:12;1.47;94.94
75010;DHT22;63564;46.840;18.336;2022-12-15T07:33:13;1.46;95.30
75010;DHT22;63564;46.840;18.336;2022-12-15T07:36:15;1.39;95.02
75010;DHT22;63564;46.840;18.336;2022-12-15T07:39:15;1.11;96.08
75010;DHT22;63564;46.840;18.336;2022-12-15T07:42:15;1.35;95.35
75010;DHT22;63564;46.840;18.336;2022-12-15T07:45:16;1.59;95.41
75010;DHT22;63564;46.840;18.336;2022-12-15T07:48:16;1.89;96.37
75010;DHT22;63564;46.840;18.336;2022-12-15T07:51:20;3.00;99.80
75010;DHT22;63564;46.840;18.336;2022-12-15T07:54:20;2.40;95.06
75010;DHT22;63564;46.840;18.336;2022-12-15T07:57:21;2.18;92.52
75010;DHT22;63564;46.840;18.336;2022-12-15T08:00:21;2.32;94.47
75010;DHT22;63564;46.840;18.336;2022-12-15T08:03:22;2.15;93.40
75010;DHT22;63564;46.840;18.336;2022-12-15T08:06:23;2.04;92.81
75010;DHT22;63564;46.840;18.336;2022-12-15T08:09:24;2.01;93.26
75010;DHT22;63564;46.840;18.336;2022-12-15T08:12:26;2.21;94.04
75010;DHT22;63564;46.840;18.336;2022-12-15T08:15:27;2.22;94.48
75010;DHT22;63564;46.840;18.336;2022-12-15T08:18:27;1.97;93.30
75010;DHT22;63564;46.840;18.336;2022-12-15T08:21:28;2.11;93.25
75010;DHT22;63564;46.840;18.336;2022-12-15T08:24:30;2.28;92.82
75010;DHT22;63564;46.840;18.336;2022-12-15T08:27:30;2.02;92.72
75010;DHT22;63564;46.840;18.336;2022-12-15T08:30:31;2.02;95.60
75010;DHT22;63564;46.840;18.336;2022-12-15T08:33:32;2.19;94.43
75010;DHT22;63564;46.840;18.336;2022-12-15T08:36:32;2.25;95.15
75010;DHT22;63564;46.840;18.336;2022-12-15T08:39:33;2.25;94.24
75010;DHT22;63564;46.840;18.336;2022-12-15T08:42:37;2.09;94.70
75010;DHT22;63564;46.840;18.336;2022-12-15T08:45:39;2.97;95.89
75010;DHT22;63564;46.840;18.336;2022-12-15T08:48:40;2.60;92.03
75010;DHT22;63564;46.840;18.336;2022-12-15T08:51:40;2.79;91.45
75010;DHT22;63564;46.840;18.336;2022-12-15T08:54:41;2.91;90.88
75010;DHT22;63564;46.840;18.336;2022-12-15T08:57:41;2.94;89.76
75010;DHT22;63564;46.840;18.336;2022-12-15T09:00:41;2.80;91.08
75010;DHT22;63564;46.840;18.336;2022-12-15T09:03:42;2.97;93.10
75010;DHT22;63564;46.840;18.336;2022-12-15T09:06:42;2.76;90.92
75010;DHT22;63564;46.840;18.336;2022-12-15T09:09:43;2.58;91.86
75010;DHT22;63564;46.840;18.336;2022-12-15T09:12:45;2.53;92.38
75010;DHT22;63564;46.840;18.336;2022-12-15T09:15:45;2.80;91.53
75010;DHT22;63564;46.840;18.336;2022-12-15T09:18:57;2.87;89.97
75010;DHT22;63564;46.840;18.336;2022-12-15T09:21:57;2.76;90.26
75010;DHT22;63564;46.840;18.336;2022-12-15T09:24:58;2.70;92.09
75010;DHT22;63564;46.840;18.336;2022-12-15T09:27:59;2.58;92.61
75010;DHT22;63564;46.840;18.336;2022-12-15T09:31:27;2.63;91.91
75010;DHT22;63564;46.840;18.336;2022-12-15T09:34:27;2.66;91.29
75010;DHT22;63564;46.840;18.336;2022-12-15T09:37:29;2.57;91.31
75010;DHT22;63564;46.840;18.336;2022-12-15T09:40:30;2.57;91.46
75010;DHT22;63564;46.840;18.336;2022-12-15T09:43:32;2.60;92.22
75010;DHT22;63564;46.840;18.336;2022-12-15T09:49:58;2.81;91.36
75010;DHT22;63564;46.840;18.336;2022-12-15T09:53:01;3.11;90.49
75010;DHT22;63564;46.840;18.336;2022-12-15T09:56:06;3.21;90.09
75010;DHT22;63564;46.840;18.336;2022-12-15T09:59:30;3.11;90.11
75010;DHT22;63564;46.840;18.336;2022-12-15T10:02:59;2.90;91.53
75010;DHT22;63564;46.840;18.336;2022-12-15T10:06:08;3.31;89.49
75010;DHT22;63564;46.840;18.336;2022-12-15T10:09:24;3.15;89.80
75010;DHT22;63564;46.840;18.336;2022-12-15T10:12:32;3.43;88.82
75010;DHT22;63564;46.840;18.336;2022-12-15T10:15:44;3.32;89.66
75010;DHT22;63564;46.840;18.336;2022-12-15T10:19:32;3.18;90.15
75010;DHT22;63564;46.840;18.336;2022-12-15T10:22:22;3.44;88.99
75010;DHT22;63564;46.840;18.336;2022-12-15T10:25:31;3.59;89.01
75010;DHT22;63564;46.840;18.336;2022-12-15T10:34:58;3.36;88.91
75010;DHT22;63564;46.840;18.336;2022-12-15T10:38:01;3.18;89.71
75010;DHT22;63564;46.840;18.336;2022-12-15T10:41:14;3.36;89.40
75010;DHT22;63564;46.840;18.336;2022-12-15T10:44:24;3.21;90.04
75010;DHT22;63564;46.840;18.336;2022-12-15T10:47:26;2.97;91.03
75010;DHT22;63564;46.840;18.336;2022-12-15T10:50:27;2.97;91.18
75010;DHT22;63564;46.840;18.336;2022-12-15T10:53:43;3.28;90.76
75010;DHT22;63564;46.840;18.336;2022-12-15T10:56:54;3.02;91.51
75010;DHT22;63564;46.840;18.336;2022-12-15T11:03:22;3.18;91.95
75010;DHT22;63564;46.840;18.336;2022-12-15T11:06:26;3.21;91.51
75010;DHT22;63564;46.840;18.336;2022-12-15T11:09:32;3.23;92.72
75010;DHT22;63564;46.840;18.336;2022-12-15T11:12:33;3.08;91.63
75010;DHT22;63564;46.840;18.336;2022-12-15T11:15:53;3.11;90.98
75010;DHT22;63564;46.840;18.336;2022-12-15T11:19:06;3.04;91.98
75010;DHT22;63564;46.840;18.336;2022-12-15T11:22:19;3.26;93.41
75010;DHT22;63564;46.840;18.336;2022-12-15T11:25:32;3.13;92.13
75010;DHT22;63564;46.840;18.336;2022-12-15T11:28:43;3.26;95.37
75010;DHT22;63564;46.840;18.336;2022-12-15T11:31:45;2.98;92.98
75010;DHT22;63564;46.840;18.336;2022-12-15T11:34:46;2.88;93.85
75010;DHT22;63564;46.840;18.336;2022-12-15T11:37:51;2.57;95.36
75010;DHT22;63564;46.840;18.336;2022-12-15T11:40:57;2.67;95.69
75010;DHT22;63564;46.840;18.336;2022-12-15T11:44:49;3.05;96.08
75010;DHT22;63564;46.840;18.336;2022-12-15T11:47:48;3.01;94.56
75010;DHT22;63564;46.840;18.336;2022-12-15T11:51:10;2.95;95.04
75010;DHT22;63564;46.840;18.336;2022-12-15T12:00:53;2.73;94.82
75010;DHT22;63564;46.840;18.336;2022-12-15T12:11:31;2.77;94.30
75010;DHT22;63564;46.840;18.336;2022-12-15T12:17:48;3.02;93.67
75010;DHT22;63564;46.840;18.336;2022-12-15T12:21:02;3.07;93.60
75010;DHT22;63564;46.840;18.336;2022-12-15T12:27:32;3.02;94.22
75010;DHT22;63564;46.840;18.336;2022-12-15T12:30:46;3.08;95.71
75010;DHT22;63564;46.840;18.336;2022-12-15T12:33:48;2.93;93.08
75010;DHT22;63564;46.840;18.336;2022-12-15T12:36:53;3.16;93.05
75010;DHT22;63564;46.840;18.336;2022-12-15T12:40:04;2.85;94.06
75010;DHT22;63564;46.840;18.336;2022-12-15T12:43:12;2.66;94.43
75010;DHT22;63564;46.840;18.336;2022-12-15T12:46:30;2.88;94.18
75010;DHT22;63564;46.840;18.336;2022-12-15T12:49:38;2.80;94.34
75010;DHT22;63564;46.840;18.336;2022-12-15T12:52:50;2.79;95.09
75010;DHT22;63564;46.840;18.336;2022-12-15T12:55:52;3.21;95.63
75010;DHT22;63564;46.840;18.336;2022-12-15T12:58:53;2.90;94.77
75010;DHT22;63564;46.840;18.336;2022-12-15T13:08:32;3.13;95.35
75010;DHT22;63564;46.840;18.336;2022-12-15T13:11:55;3.33;93.92
75010;DHT22;63564;46.840;18.336;2022-12-15T13:14:57;2.98;95.16
75010;DHT22;63564;46.840;18.336;2022-12-15T13:18:03;2.80;95.70
75010;DHT22;63564;46.840;18.336;2022-12-15T13:21:43;2.94;95.54
75010;DHT22;63564;46.840;18.336;2022-12-15T13:24:45;2.68;96.24
75010;DHT22;63564;46.840;18.336;2022-12-15T13:27:50;3.00;95.75
75010;DHT22;63564;46.840;18.336;2022-12-15T13:34:18;3.05;94.88
75010;DHT22;63564;46.840;18.336;2022-12-15T13:37:51;3.13;95.18
75010;DHT22;63564;46.840;18.336;2022-12-15T13:40:52;3.02;95.52
75010;DHT22;63564;46.840;18.336;2022-12-15T13:43:53;2.95;95.74
75010;DHT22;63564;46.840;18.336;2022-12-15T13:46:58;3.05;95.01
75010;DHT22;63564;46.840;18.336;2022-12-15T13:50:12;2.80;95.82
75010;DHT22;63564;46.840;18.336;2022-12-15T13:53:20;2.76;96.26
75010;DHT22;63564;46.840;18.336;2022-12-15T13:56:43;2.73;96.22
75010;DHT22;63564;46.840;18.336;2022-12-15T13:59:50;2.61;96.88
75010;DHT22;63564;46.840;18.336;2022-12-15T14:03:06;2.79;96.71
75010;DHT22;63564;46.840;18.336;2022-12-15T14:06:13;2.72;96.47
75010;DHT22;63564;46.840;18.336;2022-12-15T14:09:17;2.79;96.40
75010;DHT22;63564;46.840;18.336;2022-12-15T14:12:19;2.68;96.36
75010;DHT22;63564;46.840;18.336;2022-12-15T14:15:27;2.64;97.08
75010;DHT22;63564;46.840;18.336;2022-12-15T14:18:35;2.66;97.01
75010;DHT22;63564;46.840;18.336;2022-12-15T14:21:36;2.81;96.81
75010;DHT22;63564;46.840;18.336;2022-12-15T14:24:42;3.02;96.41
75010;DHT22;63564;46.840;18.336;2022-12-15T14:27:43;2.73;96.74
75010;DHT22;63564;46.840;18.336;2022-12-15T14:30:43;2.90;96.92
75010;DHT22;63564;46.840;18.336;2022-12-15T14:37:09;2.81;97.13
75010;DHT22;63564;46.840;18.336;2022-12-15T14:40:15;2.57;97.46
75010;DHT22;63564;46.840;18.336;2022-12-15T14:43:23;2.63;97.09
75010;DHT22;63564;46.840;18.336;2022-12-15T14:46:26;2.66;97.26
75010;DHT22;63564;46.840;18.336;2022-12-15T14:49:36;2.70;97.05
75010;DHT22;63564;46.840;18.336;2022-12-15T14:52:40;2.72;97.08
75010;DHT22;63564;46.840;18.336;2022-12-15T14:55:41;2.76;97.09
75010;DHT22;63564;46.840;18.336;2022-12-15T14:58:42;2.87;96.32
75010;DHT22;63564;46.840;18.336;2022-12-15T15:02:22;2.76;96.43
75010;DHT22;63564;46.840;18.336;2022-12-15T15:05:25;2.79;96.39
75010;DHT22;63564;46.840;18.336;2022-12-15T15:08:31;2.72;96.63
75010;DHT22;63564;46.840;18.336;2022-12-15T15:11:35;2.68;96.68
75010;DHT22;63564;46.840;18.336;2022-12-15T15:14:40;2.67;97.07
75010;DHT22;63564;46.840;18.336;2022-12-15T15:17:44;2.64;97.21
75010;DHT22;63564;46.840;18.336;2022-12-15T15:20:56;2.56;97.73
75010;DHT22;63564;46.840;18.336;2022-12-15T15:24:02;2.60;97.78
75010;DHT22;63564;46.840;18.336;2022-12-15T15:27:23;2.54;97.86
75010;DHT22;63564;46.840;18.336;2022-12-15T15:30:24;2.42;98.20
75010;DHT22;63564;46.840;18.336;2022-12-15T15:33:25;2.50;97.87
75010;DHT22;63564;46.840;18.336;2022-12-15T15:36:32;2.66;97.23
75010;DHT22;63564;46.840;18.336;2022-12-15T15:39:32;2.50;97.51
75010;DHT22;63564;46.840;18.336;2022-12-15T15:42:33;2.70;97.27
75010;DHT22;63564;46.840;18.336;2022-12-15T15:45:33;2.58;97.44
75010;DHT22;63564;46.840;18.336;2022-12-15T15:48:37;2.39;97.91
75010;DHT22;63564;46.840;18.336;2022-12-15T15:51:38;2.36;97.96
75010;DHT22;63564;46.840;18.336;2022-12-15T15:54:39;2.43;97.96
75010;DHT22;63564;46.840;18.336;2022-12-15T15:57:39;2.19;98.93
75010;DHT22;63564;46.840;18.336;2022-12-15T16:00:40;2.14;99.42
75010;DHT22;63564;46.840;18.336;2022-12-15T16:03:40;2.35;98.92
75010;DHT22;63564;46.840;18.336;2022-12-15T16:06:40;2.19;99.25
75010;DHT22;63564;46.840;18.336;2022-12-15T16:09:41;2.33;99.06
75010;DHT22;63564;46.840;18.336;2022-12-15T16:12:53;2.63;99.33
75010;DHT22;63564;46.840;18.336;2022-12-15T16:15:54;2.60;97.82
75010;DHT22;63564;46.840;18.336;2022-12-15T16:18:54;2.40;98.42
75010;DHT22;63564;46.840;18.336;2022-12-15T16:21:54;2.43;98.45
75010;DHT22;63564;46.840;18.336;2022-12-15T16:24:56;2.60;98.71
75010;DHT22;63564;46.840;18.336;2022-12-15T16:27:57;2.60;98.06
75010;DHT22;63564;46.840;18.336;2022-12-15T16:30:57;2.70;97.82
75010;DHT22;63564;46.840;18.336;2022-12-15T16:33:58;2.53;98.04
75010;DHT22;63564;46.840;18.336;2022-12-15T16:36:58;2.52;98.03
75010;DHT22;63564;46.840;18.336;2022-12-15T16:39:58;2.53;97.79
75010;DHT22;63564;46.840;18.336;2022-12-15T16:43:00;2.58;97.72
75010;DHT22;63564;46.840;18.336;2022-12-15T16:46:01;2.49;97.76
75010;DHT22;63564;46.840;18.336;2022-12-15T16:49:01;2.54;97.70
75010;DHT22;63564;46.840;18.336;2022-12-15T16:52:02;2.61;97.49
75010;DHT22;63564;46.840;18.336;2022-12-15T16:55:03;2.58;97.45
75010;DHT22;63564;46.840;18.336;2022-12-15T16:58:05;2.40;97.75
75010;DHT22;63564;46.840;18.336;2022-12-15T17:01:05;2.19;99.15
75010;DHT22;63564;46.840;18.336;2022-12-15T17:04:06;2.42;98.54
75010;DHT22;63564;46.840;18.336;2022-12-15T17:07:08;2.36;98.33
75010;DHT22;63564;46.840;18.336;2022-12-15T17:10:16;2.37;98.60
75010;DHT22;63564;46.840;18.336;2022-12-15T17:13:33;2.43;98.22
75010;DHT22;63564;46.840;18.336;2022-12-15T17:16:34;2.25;98.70
75010;DHT22;63564;46.840;18.336;2022-12-15T17:19:35;2.32;98.97
75010;DHT22;63564;46.840;18.336;2022-12-15T17:22:36;2.15;98.75
75010;DHT22;63564;46.840;18.336;2022-12-15T17:25:39;2.22;99.43
75010;DHT22;63564;46.840;18.336;2022-12-15T17:28:40;2.24;99.58
75010;DHT22;63564;46.840;18.336;2022-12-15T17:31:41;2.43;99.60
75010;DHT22;63564;46.840;18.336;2022-12-15T17:34:41;2.36;98.80
75010;DHT22;63564;46.840;18.336;2022-12-15T17:37:43;2.40;99.04
75010;DHT22;63564;46.840;18.336;2022-12-15T17:40:45;2.32;99.28
75010;DHT22;63564;46.840;18.336;2022-12-15T17:43:46;2.29;99.61
75010;DHT22;63564;46.840;18.336;2022-12-15T17:46:47;2.40;99.67
75010;DHT22;63564;46.840;18.336;2022-12-15T17:49:48;2.33;99.75
75010;DHT22;63564;46.840;18.336;2022-12-15T17:52:49;2.49;99.71
75010;DHT22;63564;46.840;18.336;2022-12-15T17:55:50;2.46;99.26
75010;DHT22;63564;46.840;18.336;2022-12-15T17:58:51;2.50;99.70
75010;DHT22;63564;46.840;18.336;2022-12-15T18:01:53;2.50;99.68
75010;DHT22;63564;46.840;18.336;2022-12-15T18:04:56;2.56;99.85
75010;DHT22;63564;46.840;18.336;2022-12-15T18:07:59;2.63;99.88
75010;DHT22;63564;46.840;18.336;2022-12-15T18:11:00;2.67;99.85
75010;DHT22;63564;46.840;18.336;2022-12-15T18:14:01;2.64;99.87
75010;DHT22;63564;46.840;18.336;2022-12-15T18:17:01;2.77;99.13
75010;DHT22;63564;46.840;18.336;2022-12-15T18:20:02;2.66;99.70
75010;DHT22;63564;46.840;18.336;2022-12-15T18:23:23;2.63;99.50
75010;DHT22;63564;46.840;18.336;2022-12-15T18:26:25;2.70;99.73
75010;DHT22;63564;46.840;18.336;2022-12-15T18:29:26;2.74;99.23
75010;DHT22;63564;46.840;18.336;2022-12-15T18:32:26;2.64;98.84
75010;DHT22;63564;46.840;18.336;2022-12-15T18:35:36;2.66;99.43
75010;DHT22;63564;46.840;18.336;2022-12-15T18:38:39;2.61;99.70
75010;DHT22;63564;46.840;18.336;2022-12-15T18:41:39;2.58;99.99
75010;DHT22;63564;46.840;18.336;2022-12-15T18:44:44;2.67;99.99
75010;DHT22;63564;46.840;18.336;2022-12-15T18:47:45;2.64;99.79
75010;DHT22;63564;46.840;18.336;2022-12-15T18:50:47;2.74;99.41
75010;DHT22;63564;46.840;18.336;2022-12-15T18:53:48;2.84;99.31
75010;DHT22;63564;46.840;18.336;2022-12-15T18:56:50;2.76;98.70
75010;DHT22;63564;46.840;18.336;2022-12-15T18:59:57;2.74;99.08
75010;DHT22;63564;46.840;18.336;2022-12-15T19:02:58;2.56;99.24
75010;DHT22;63564;46.840;18.336;2022-12-15T19:09:20;2.61;99.81
75010;DHT22;63564;46.840;18.336;2022-12-15T19:12:24;2.68;99.80
75010;DHT22;63564;46.840;18.336;2022-12-15T19:15:25;2.56;99.77
75010;DHT22;63564;46.840;18.336;2022-12-15T19:18:26;2.60;99.99
75010;DHT22;63564;46.840;18.336;2022-12-15T19:21:45;2.66;99.99
75010;DHT22;63564;46.840;18.336;2022-12-15T19:24:59;2.67;99.61
75010;DHT22;63564;46.840;18.336;2022-12-15T19:28:01;2.60;99.99
75010;DHT22;63564;46.840;18.336;2022-12-15T19:31:02;2.70;99.99
75010;DHT22;63564;46.840;18.336;2022-12-15T19:34:02;2.64;99.99
75010;DHT22;63564;46.840;18.336;2022-12-15T19:37:05;2.67;99.99
75010;DHT22;63564;46.840;18.336;2022-12-15T19:40:06;2.64;99.99
75010;DHT22;63564;46.840;18.336;2022-12-15T19:43:10;2.81;99.99
75010;DHT22;63564;46.840;18.336;2022-12-15T19:46:15;2.76;99.99
75010;DHT22;63564;46.840;18.336;2022-12-15T19:49:16;2.70;99.99
75010;DHT22;63564;46.840;18.336;2022-12-15T19:52:18;2.79;99.99
75010;DHT22;63564;46.840;18.336;2022-12-15T19:55:23;2.68;99.99
75010;DHT22;63564;46.840;18.336;2022-12-15T20:01:27;2.74;99.76
75010;DHT22;63564;46.840;18.336;2022-12-15T20:04:29;2.70;99.97
75010;DHT22;63564;46.840;18.336;2022-12-15T20:07:31;2.85;99.79
75010;DHT22;63564;46.840;18.336;2022-12-15T20:10:32;2.73;99.32
75010;DHT22;63564;46.840;18.336;2022-12-15T20:13:34;2.79;99.83
75010;DHT22;63564;46.840;18.336;2022-12-15T20:16:35;2.70;99.93
75010;DHT22;63564;46.840;18.336;2022-12-15T20:19:35;2.74;99.95
75010;DHT22;63564;46.840;18.336;2022-12-15T20:22:36;2.85;99.88
75010;DHT22;63564;46.840;18.336;2022-12-15T20:25:37;2.83;99.75
75010;DHT22;63564;46.840;18.336;2022-12-15T20:28:39;2.68;99.84
75010;DHT22;63564;46.840;18.336;2022-12-15T20:31:40;2.80;99.93
75010;DHT22;63564;46.840;18.336;2022-12-15T20:34:40;2.74;99.99
75010;DHT22;63564;46.840;18.336;2022-12-15T20:37:41;2.73;99.99